Time;durP1;ratioP1;P1;durP2;ratioP2;P2;SDS_P1;SDS_P2;PMS_P1;PMS_P2;Temp;Humidity;BMP_temperature;BMP_pressure;BME280_temperature;BME280_humidity;BME280_pressure;Samples;Min_cycle;Max_cycle;Signal;HPM_P1;HPM_P2
2023/05/02 00:01:16;;;;;;;11.63;4.60;;;;;;;4.39;100.00;98740.06;5159049;27;20069;-59
2023/05/02 00:03:42;;;;;;;10.05;5.10;;;;;;;4.43;100.00;98728.22;5159332;27;20138;-64
2023/05/02 00:06:08;;;;;;;8.25;4.45;;;;;;;4.39;100.00;98740.06;5159252;27;20137;-58
2023/05/02 00:08:34;;;;;;;8.52;4.60;;;;;;;4.39;100.00;98743.56;5159164;27;20050;-64
2023/05/02 00:11:00;;;;;;;14.93;4.68;;;;;;;4.35;100.00;98739.94;5159456;27;20047;-66
2023/05/02 00:13:26;;;;;;;9.68;4.55;;;;;;;4.34;100.00;98753.88;5159010;27;20051;-64
2023/05/02 00:15:52;;;;;;;7.93;4.13;;;;;;;4.34;100.00;98765.50;5159376;27;20047;-60
2023/05/02 00:18:18;;;;;;;10.25;4.35;;;;;;;4.35;100.00;98744.59;5158752;27;20051;-60
2023/05/02 00:20:44;;;;;;;10.52;5.43;;;;;;;4.32;100.00;98737.91;5158543;27;20150;-63
2023/05/02 00:23:12;;;;;;;10.57;4.30;;;;;;;4.34;100.00;98729.44;5158725;27;20047;-60
2023/05/02 00:25:43;;;;;;;9.38;4.30;;;;;;;4.30;100.00;98739.34;5156871;27;20298;-64
2023/05/02 00:28:09;;;;;;;10.10;4.60;;;;;;;4.30;100.00;98732.03;5158986;27;20537;-62
2023/05/02 00:30:36;;;;;;;13.43;5.13;;;;;;;4.32;100.00;98727.03;5158845;27;20193;-62
2023/05/02 00:33:01;;;;;;;13.57;4.22;;;;;;;4.27;100.00;98746.25;5158874;27;20046;-62
2023/05/02 00:35:28;;;;;;;9.82;5.05;;;;;;;4.30;100.00;98739.34;5158946;27;20050;-60
2023/05/02 00:37:54;;;;;;;11.93;5.18;;;;;;;4.32;100.00;98727.03;5158624;27;20082;-63
2023/05/02 00:40:20;;;;;;;12.18;4.63;;;;;;;4.25;100.00;98726.78;5158879;27;20086;-60
2023/05/02 00:42:46;;;;;;;8.63;3.95;;;;;;;4.29;100.00;98737.78;5158587;27;20093;-56
2023/05/02 00:45:12;;;;;;;8.93;4.03;;;;;;;4.27;100.00;98721.84;5158492;27;20141;-55
2023/05/02 00:47:38;;;;;;;8.80;4.43;;;;;;;4.21;100.00;98728.59;5158406;27;20369;-57
2023/05/02 00:50:05;;;;;;;8.75;4.50;;;;;;;4.19;100.00;98726.19;5158876;27;20058;-60
2023/05/02 00:52:32;;;;;;;10.98;4.43;;;;;;;4.21;100.00;98734.81;5158615;27;20057;-58
2023/05/02 00:54:58;;;;;;;14.52;4.13;;;;;;;4.24;100.00;98738.78;5158545;27;20185;-64
2023/05/02 00:57:25;;;;;;;12.65;5.00;;;;;;;4.22;100.00;98733.69;5158554;27;20101;-63
2023/05/02 00:59:51;;;;;;;9.80;4.93;;;;;;;4.23;100.00;98727.16;5158391;27;20043;-60
2023/05/02 01:02:33;;;;;;;8.93;4.35;;;;;;;4.19;100.00;98731.63;5158533;27;20145;-58
2023/05/02 01:05:08;;;;;;;9.85;4.15;;;;;;;4.20;100.00;98746.00;5158103;27;20064;-59
2023/05/02 01:07:50;;;;;;;7.32;4.13;;;;;;;4.17;100.00;98747.47;5158622;27;20142;-59
2023/05/02 01:10:26;;;;;;;11.40;4.43;;;;;;;4.22;100.00;98749.16;5157971;27;20042;-57
2023/05/02 01:12:58;;;;;;;10.45;4.80;;;;;;;4.21;100.00;98761.16;5158358;27;20130;-54
2023/05/02 01:15:25;;;;;;;8.02;4.07;;;;;;;4.20;100.00;98749.50;5158421;27;20084;-63
2023/05/02 01:17:55;;;;;;;17.60;4.57;;;;;;;4.16;100.00;98762.13;5158159;27;20165;-59
2023/05/02 01:20:25;;;;;;;16.02;4.68;;;;;;;4.23;100.00;98759.69;5158371;27;20119;-60
2023/05/02 01:22:52;;;;;;;8.45;4.93;;;;;;;4.28;100.00;98757.91;5158097;27;20096;-63
2023/05/02 01:25:28;;;;;;;9.05;4.53;;;;;;;4.28;100.00;98755.19;5158307;27;20047;-60
2023/05/02 01:28:03;;;;;;;8.32;3.70;;;;;;;4.22;100.00;98755.38;5157991;27;20062;-56
2023/05/02 01:30:33;;;;;;;11.20;4.22;;;;;;;4.21;100.00;98734.81;5158332;27;20133;-60
2023/05/02 01:33:02;;;;;;;8.23;4.72;;;;;;;4.17;100.00;98733.91;5159897;27;20047;-58
2023/05/02 01:35:31;;;;;;;9.18;4.55;;;;;;;4.15;100.00;98747.00;5161715;27;20054;-65
2023/05/02 01:37:58;;;;;;;6.43;3.67;;;;;;;4.17;100.00;98749.38;5161732;27;20398;-62
2023/05/02 01:40:25;;;;;;;13.10;3.70;;;;;;;4.17;100.00;98750.19;5161704;27;20436;-63
2023/05/02 01:42:52;;;;;;;6.65;4.13;;;;;;;4.22;100.00;98758.09;5161588;27;20057;-59
2023/05/02 01:45:21;;;;;;;17.17;4.38;;;;;;;4.21;100.00;98750.31;5161401;27;20060;-62
2023/05/02 01:47:50;;;;;;;8.90;4.22;;;;;;;4.21;100.00;98753.81;5161760;27;20129;-59
2023/05/02 01:50:19;;;;;;;8.85;4.50;;;;;;;4.21;100.00;98756.50;5161404;27;20054;-62
2023/05/02 01:52:48;;;;;;;6.78;3.70;;;;;;;4.21;100.00;98761.16;5161671;27;20387;-62
2023/05/02 01:55:17;;;;;;;7.20;4.10;;;;;;;4.18;100.00;98756.38;5161266;27;20050;-54
2023/05/02 01:57:45;;;;;;;8.02;4.13;;;;;;;4.09;100.00;98755.66;5161169;27;20134;-54
2023/05/02 02:00:13;;;;;;;15.85;4.60;;;;;;;4.17;100.00;98749.38;5161202;27;20400;-57
2023/05/02 02:02:41;;;;;;;11.70;4.43;;;;;;;4.15;100.00;98744.28;5161374;27;20134;-64
2023/05/02 02:05:11;;;;;;;10.20;4.07;;;;;;;3.96;100.00;98741.25;5161326;27;20042;-59
2023/05/02 02:07:37;;;;;;;8.30;4.78;;;;;;;4.05;100.00;98712.13;5161212;27;20138;-59
2023/05/02 02:10:04;;;;;;;10.32;4.47;;;;;;;4.08;100.00;98708.75;5161375;27;20327;-62
2023/05/02 02:12:41;;;;;;;17.45;5.43;;;;;;;4.05;100.00;98706.72;5160972;27;20431;-62
2023/05/02 02:15:13;;;;;;;11.35;4.82;;;;;;;4.03;100.00;98703.53;5160937;27;20133;-63
2023/05/02 02:17:45;;;;;;;12.35;4.53;;;;;;;4.06;100.00;98716.41;5160830;27;20061;-58
2023/05/02 02:20:14;;;;;;;8.70;4.68;;;;;;;4.07;100.00;98725.38;5161264;27;20133;-57
2023/05/02 02:22:43;;;;;;;11.07;4.90;;;;;;;4.00;100.00;98720.50;5161111;27;20055;-63
2023/05/02 02:25:12;;;;;;;16.48;5.22;;;;;;;3.94;100.00;98727.22;5160974;27;20398;-59
2023/05/02 02:27:39;;;;;;;14.88;5.60;;;;;;;4.04;100.00;98720.63;5160872;27;20082;-60
2023/05/02 02:30:07;;;;;;;15.85;4.70;;;;;;;4.05;100.00;98719.47;5160863;27;20050;-58
2023/05/02 02:32:33;;;;;;;14.02;5.55;;;;;;;4.06;100.00;98721.06;5160880;27;20046;-62
2023/05/02 02:35:00;;;;;;;11.77;5.82;;;;;;;4.06;100.00;98721.06;5160664;27;20058;-58
2023/05/02 02:37:31;;;;;;;14.25;5.80;;;;;;;4.01;100.00;98700.38;5160943;27;20384;-61
2023/05/02 02:40:07;;;;;;;13.75;5.78;;;;;;;3.95;100.00;98716.03;5161038;27;20134;-56
2023/05/02 02:42:41;;;;;;;14.70;5.10;;;;;;;3.96;100.00;98720.31;5160956;27;20051;-62
2023/05/02 02:45:19;;;;;;;8.35;4.13;;;;;;;3.99;100.00;98763.06;5159970;27;20061;-61
2023/05/02 02:47:50;;;;;;;10.77;5.18;;;;;;;3.89;100.00;98720.06;5160591;27;20046;-61
2023/05/02 02:50:23;;;;;;;7.47;5.35;;;;;;;3.86;100.00;98673.84;5160486;27;20483;-58
2023/05/02 02:52:54;;;;;;;11.48;5.28;;;;;;;3.97;100.00;98670.41;5160494;27;20056;-55
2023/05/02 02:55:36;;;;;;;14.43;4.60;;;;;;;3.95;100.00;98669.94;5160569;27;20047;-57
2023/05/02 02:58:12;;;;;;;10.13;4.63;;;;;;;4.03;100.00;98689.16;5160167;27;20378;-56
2023/05/02 03:00:39;;;;;;;9.75;4.47;;;;;;;4.15;100.00;98698.16;5160587;27;20082;-55
2023/05/02 03:03:06;;;;;;;12.20;3.50;;;;;;;4.13;100.00;98756.56;5160114;27;20050;-63
2023/05/02 03:05:33;;;;;;;9.70;4.20;;;;;;;4.43;100.00;98760.81;5160295;27;20137;-54
2023/05/02 03:07:59;;;;;;;10.20;4.00;;;;;;;4.60;100.00;98738.13;5160118;27;20051;-64
2023/05/02 03:10:25;;;;;;;9.18;4.15;;;;;;;4.87;100.00;98755.72;5160050;27;20409;-60
2023/05/02 03:12:54;;;;;;;5.80;3.40;;;;;;;5.61;100.00;98925.13;5160140;27;20422;-57
2023/05/02 03:15:42;;;;;;;8.07;3.72;;;;;;;6.28;100.00;98954.91;5160047;27;20336;-60
2023/05/02 03:18:08;;;;;;;7.68;3.80;;;;;;;6.96;100.00;99057.78;5160280;27;20167;-64
2023/05/02 03:20:34;;;;;;;9.77;3.78;;;;;;;7.58;100.00;99094.66;5159908;27;20048;-61
2023/05/02 03:23:00;;;;;;;4.90;3.00;;;;;;;7.58;100.00;99173.78;5160276;27;20145;-61
2023/05/02 03:25:26;;;;;;;7.07;3.30;;;;;;;8.17;100.00;99181.34;5159706;27;20046;-65
2023/05/02 03:27:53;;;;;;;9.70;3.50;;;;;;;8.65;100.00;99192.38;5159674;27;20057;-58
2023/05/02 03:30:19;;;;;;;10.73;3.22;;;;;;;9.27;100.00;99196.25;5159748;27;20391;-63
2023/05/02 03:32:45;;;;;;;16.98;3.63;;;;;;;9.21;100.00;99227.75;5159863;27;20061;-64
2023/05/02 03:35:10;;;;;;;10.18;3.45;;;;;;;9.42;100.00;99243.88;5159893;27;20107;-63
2023/05/02 03:37:36;;;;;;;7.32;3.20;;;;;;;9.61;100.00;99257.63;5159509;27;20332;-64
2023/05/02 03:40:03;;;;;;;5.85;3.03;;;;;;;9.87;95.18;99262.53;5159955;27;20043;-61
2023/05/02 03:42:29;;;;;;;9.98;3.30;;;;;;;10.49;96.28;99275.56;5159642;27;20057;-61
2023/05/02 03:44:55;;;;;;;9.57;3.60;;;;;;;9.88;84.23;99290.69;5159814;27;20086;-63
2023/05/02 03:47:21;;;;;;;6.28;3.30;;;;;;;11.21;81.03;99288.66;5159538;27;20086;-63
2023/05/02 03:49:47;;;;;;;8.00;3.05;;;;;;;11.48;82.88;99290.28;5159840;27;20141;-65
2023/05/02 03:52:13;;;;;;;9.93;2.88;;;;;;;12.07;81.11;99293.56;5159367;27;20415;-64
2023/05/02 03:54:39;;;;;;;7.20;3.28;;;;;;;11.76;77.26;99308.34;5159725;27;20195;-65
2023/05/02 03:57:06;;;;;;;6.72;3.03;;;;;;;11.59;78.79;99290.44;5158181;27;20103;-61
2023/05/02 03:59:33;;;;;;;9.32;3.45;;;;;;;12.28;74.77;99301.28;5159427;27;20050;-60
2023/05/02 04:01:59;;;;;;;8.93;3.13;;;;;;;11.87;71.33;99303.06;5159295;27;20426;-55
2023/05/02 04:04:25;;;;;;;5.95;2.97;;;;;;;12.90;69.76;99298.88;5159160;27;20137;-58
2023/05/02 04:06:51;;;;;;;6.57;3.17;;;;;;;12.44;70.32;99299.13;5159393;27;20047;-58
2023/05/02 04:09:17;;;;;;;6.35;3.03;;;;;;;12.82;70.86;99301.94;5159248;27;20050;-62
2023/05/02 04:11:44;;;;;;;3.85;2.70;;;;;;;12.75;66.77;99308.13;5159285;27;20430;-63
2023/05/02 04:14:11;;;;;;;12.63;2.78;;;;;;;14.04;65.79;99301.81;5159117;27;20138;-63
2023/05/02 04:16:37;;;;;;;5.10;3.10;;;;;;;14.15;67.16;99301.88;5159381;27;20061;-64
2023/05/02 04:19:02;;;;;;;7.57;2.72;;;;;;;13.80;65.22;99313.47;5158711;27;20332;-63
2023/05/02 04:21:28;;;;;;;9.65;2.80;;;;;;;12.71;66.27;99310.84;5159317;27;20089;-64
2023/05/02 04:23:54;;;;;;;7.28;3.13;;;;;;;13.44;65.65;99304.94;5158802;27;20047;-62
2023/05/02 04:26:20;;;;;;;5.03;3.28;;;;;;;13.62;65.95;99310.56;5158975;27;20464;-57
2023/05/02 04:28:46;;;;;;;11.80;3.17;;;;;;;13.76;64.69;99315.41;5159019;27;20133;-57
2023/05/02 04:31:13;;;;;;;5.72;2.63;;;;;;;13.19;63.76;99312.91;5158716;27;20402;-60
2023/05/02 04:33:39;;;;;;;7.80;3.00;;;;;;;13.33;65.03;99307.59;5158957;27;20194;-58
2023/05/02 04:36:05;;;;;;;5.85;3.13;;;;;;;13.93;65.21;99309.25;5158514;27;20108;-57
2023/05/02 04:38:31;;;;;;;6.03;3.13;;;;;;;12.26;65.88;99306.34;5158917;27;20153;-60
2023/05/02 04:40:57;;;;;;;10.75;3.15;;;;;;;13.80;65.08;99311.50;5158527;27;20471;-58
2023/05/02 04:43:23;;;;;;;5.85;2.70;;;;;;;13.58;63.31;99313.31;5158832;27;20137;-63
2023/05/02 04:45:49;;;;;;;7.97;2.53;;;;;;;13.60;63.81;99312.94;5158428;27;20191;-65
2023/05/02 04:48:15;;;;;;;5.57;2.75;;;;;;;13.95;61.59;99312.38;5158800;27;20093;-64
2023/05/02 04:50:41;;;;;;;7.95;2.75;;;;;;;13.19;63.50;99313.72;5158340;27;20047;-62
2023/05/02 04:53:07;;;;;;;5.82;3.47;;;;;;;13.28;65.45;99312.66;5158704;27;20368;-63
2023/05/02 04:55:33;;;;;;;9.10;3.38;;;;;;;13.03;65.95;99315.94;5158510;27;20110;-60
2023/05/02 04:57:59;;;;;;;5.95;3.15;;;;;;;14.14;64.87;99316.84;5158144;27;20394;-57
2023/05/02 05:00:25;;;;;;;7.72;2.92;;;;;;;14.49;62.70;99316.22;5158160;27;20137;-56
2023/05/02 05:02:51;;;;;;;5.90;2.55;;;;;;;14.49;61.78;99318.19;5158288;27;20142;-58
2023/05/02 05:05:18;;;;;;;11.20;2.88;;;;;;;16.07;60.38;99313.72;5158109;27;20057;-59
2023/05/02 05:07:44;;;;;;;12.63;3.28;;;;;;;15.19;58.83;99308.56;5157622;27;20066;-60
2023/05/02 05:10:10;;;;;;;9.13;3.20;;;;;;;15.06;60.34;99308.19;5158305;27;20061;-59
2023/05/02 05:12:36;;;;;;;5.78;2.83;;;;;;;13.82;61.70;99313.88;5158113;27;20147;-62
2023/05/02 05:15:02;;;;;;;12.57;3.40;;;;;;;13.76;60.79;99310.69;5158129;27;20176;-64
2023/05/02 05:17:29;;;;;;;8.57;3.45;;;;;;;14.20;61.12;99311.75;5158651;27;20047;-55
2023/05/02 05:19:55;;;;;;;11.07;3.53;;;;;;;13.74;62.16;99301.22;5158538;27;20352;-60
2023/05/02 05:22:22;;;;;;;8.82;3.63;;;;;;;13.42;62.06;99307.25;5157719;27;20142;-64
2023/05/02 05:24:52;;;;;;;12.20;3.10;;;;;;;14.74;61.22;99302.56;5158213;27;20361;-60
2023/05/02 05:27:18;;;;;;;14.77;4.07;;;;;;;14.77;60.22;99296.25;5158003;27;20389;-64
2023/05/02 05:29:43;;;;;;;8.30;2.80;;;;;;;15.06;59.32;99301.84;5157690;27;20082;-65
2023/05/02 05:32:09;;;;;;;14.02;2.90;;;;;;;14.53;58.84;99300.53;5158007;27;20115;-63
2023/05/02 05:34:36;;;;;;;10.15;2.85;;;;;;;15.10;57.38;99301.88;5157564;27;20047;-58
2023/05/02 05:37:02;;;;;;;6.82;2.97;;;;;;;15.88;57.85;99298.34;5157923;27;20055;-59
2023/05/02 05:39:29;;;;;;;3.28;2.17;;;;;;;15.03;57.36;99300.69;5157618;27;20423;-61
2023/05/02 05:41:56;;;;;;;7.68;2.45;;;;;;;16.50;57.32;99285.94;5157911;27;20050;-63
2023/05/02 05:44:22;;;;;;;2.55;1.90;;;;;;;16.87;55.64;99288.16;5157511;27;20046;-58
2023/05/02 05:46:48;;;;;;;8.32;2.17;;;;;;;17.42;54.86;99290.13;5157959;27;20074;-56
2023/05/02 05:49:15;;;;;;;10.30;2.00;;;;;;;16.41;54.39;99278.06;5157408;27;20141;-57
2023/05/02 05:51:41;;;;;;;17.63;2.33;;;;;;;17.33;55.07;99282.31;5157876;27;20057;-57
2023/05/02 05:54:07;;;;;;;3.35;1.60;;;;;;;17.79;53.82;99285.91;5157744;27;20150;-56
2023/05/02 05:56:34;;;;;;;6.85;2.00;;;;;;;16.21;54.81;99291.56;5157559;27;20062;-61
2023/05/02 05:59:00;;;;;;;3.67;1.80;;;;;;;17.33;54.64;99285.09;5157240;27;20139;-63
2023/05/02 06:01:26;;;;;;;3.92;1.80;;;;;;;16.43;54.61;99281.22;5157355;27;20082;-61
2023/05/02 06:03:52;;;;;;;6.00;2.38;;;;;;;16.63;55.60;99281.53;5157372;27;20400;-57
2023/05/02 06:06:18;;;;;;;2.72;1.67;;;;;;;16.43;55.62;99270.16;5157109;27;20078;-58
2023/05/02 06:08:43;;;;;;;3.40;1.95;;;;;;;15.95;56.41;99279.75;5157515;27;20054;-54
2023/05/02 06:11:10;;;;;;;8.07;3.13;;;;;;;17.72;55.52;99275.63;5157155;27;20133;-57
2023/05/02 06:13:36;;;;;;;3.08;1.90;;;;;;;18.20;53.94;99274.78;5157416;27;20050;-62
2023/05/02 06:16:02;;;;;;;7.72;2.13;;;;;;;18.12;54.55;99273.28;5156707;27;20335;-63
2023/05/02 06:18:28;;;;;;;10.75;1.92;;;;;;;16.72;55.25;99268.03;5157468;27;20402;-57
2023/05/02 06:20:54;;;;;;;4.60;1.77;;;;;;;16.74;54.87;99259.31;5160158;27;20042;-57
2023/05/02 06:23:20;;;;;;;8.35;2.17;;;;;;;16.89;55.04;99264.41;5160595;27;20133;-57
2023/05/02 06:25:46;;;;;;;6.10;1.58;;;;;;;17.92;53.70;99258.44;5160642;27;20431;-58
2023/05/02 06:28:12;;;;;;;4.35;1.90;;;;;;;18.54;52.92;99265.66;5160345;27;20491;-61
2023/05/02 06:30:38;;;;;;;5.88;1.73;;;;;;;17.33;54.07;99262.91;5160409;27;20042;-61
2023/05/02 06:33:05;;;;;;;13.32;2.53;;;;;;;17.17;54.02;99255.13;5160507;27;20089;-55
2023/05/02 06:35:30;;;;;;;3.45;1.50;;;;;;;17.82;53.89;99252.59;5160482;27;20054;-62
2023/05/02 06:37:56;;;;;;;10.15;2.10;;;;;;;18.47;53.79;99258.19;5160394;27;20057;-60
2023/05/02 06:40:22;;;;;;;7.20;1.90;;;;;;;18.47;52.58;99249.88;5160632;27;20111;-58
2023/05/02 06:42:48;;;;;;;4.88;2.03;;;;;;;19.02;52.17;99253.50;5160349;27;20133;-58
2023/05/02 06:45:14;;;;;;;6.15;1.92;;;;;;;17.87;52.51;99246.59;5160564;27;20043;-58
2023/05/02 06:47:41;;;;;;;5.47;1.83;;;;;;;18.11;53.18;99253.06;5160034;27;20056;-60
2023/05/02 06:50:08;;;;;;;4.70;2.20;;;;;;;18.23;52.06;99243.44;5160506;27;20084;-57
2023/05/02 06:52:33;;;;;;;7.25;2.13;;;;;;;18.67;51.28;99247.22;5160159;27;20055;-64
2023/05/02 06:54:59;;;;;;;12.20;1.88;;;;;;;19.16;51.67;99247.75;5160218;27;20097;-65
2023/05/02 06:57:25;;;;;;;6.45;1.95;;;;;;;18.82;51.23;99239.50;5160002;27;20145;-62
2023/05/02 06:59:51;;;;;;;6.20;1.73;;;;;;;17.92;51.79;99233.47;5160288;27;20195;-61
2023/05/02 07:02:17;;;;;;;3.92;1.80;;;;;;;18.31;52.12;99244.13;5160205;27;20473;-60
2023/05/02 07:04:44;;;;;;;4.57;1.60;;;;;;;17.64;52.54;99238.88;5159907;27;20093;-60
2023/05/02 07:07:10;;;;;;;1.98;1.50;;;;;;;18.89;51.50;99244.16;5160099;27;20408;-62
2023/05/02 07:09:36;;;;;;;5.95;2.38;;;;;;;20.15;51.12;99235.28;5159701;27;20061;-63
2023/05/02 07:12:02;;;;;;;2.80;1.63;;;;;;;18.44;51.27;99241.59;5160268;27;20042;-63
2023/05/02 07:14:28;;;;;;;7.80;3.85;;;;;;;19.68;51.20;99238.16;5159965;27;20050;-63
2023/05/02 07:16:54;;;;;;;4.85;2.50;;;;;;;19.33;51.26;99239.56;5160112;27;20089;-54
2023/05/02 07:19:20;;;;;;;4.82;2.20;;;;;;;19.15;49.97;99235.03;5159556;27;20293;-54
2023/05/02 07:21:47;;;;;;;3.63;1.83;;;;;;;19.23;50.94;99230.94;5159913;27;20061;-59
2023/05/02 07:24:13;;;;;;;5.65;2.25;;;;;;;19.91;49.99;99238.13;5159881;27;20047;-57
2023/05/02 07:26:39;;;;;;;8.75;1.90;;;;;;;20.07;50.23;99237.44;5159754;27;20327;-57
2023/05/02 07:29:05;;;;;;;23.20;6.95;;;;;;;20.80;52.40;99231.97;5159851;27;20062;-53
2023/05/02 07:31:32;;;;;;;7.93;2.80;;;;;;;20.02;49.12;99235.13;5159361;27;20050;-56
2023/05/02 07:33:58;;;;;;;8.15;1.92;;;;;;;19.77;49.62;99230.06;5159722;27;20061;-56
2023/05/02 07:36:24;;;;;;;4.82;2.45;;;;;;;20.81;49.70;99225.94;5159389;27;20050;-52
2023/05/02 07:38:50;;;;;;;7.93;2.80;;;;;;;20.28;49.49;99227.09;5159174;27;20104;-55
2023/05/02 07:41:16;;;;;;;5.80;1.98;;;;;;;18.38;50.70;99224.59;5159108;27;20133;-54
2023/05/02 07:43:42;;;;;;;2.85;1.55;;;;;;;18.21;51.37;99228.41;5159654;27;20074;-54
2023/05/02 07:46:08;;;;;;;7.30;1.77;;;;;;;18.46;51.75;99220.56;5159193;27;20510;-59
2023/05/02 07:48:34;;;;;;;13.38;2.13;;;;;;;18.94;51.71;99222.28;5159181;27;20061;-60
2023/05/02 07:51:06;;;;;;;3.80;1.98;;;;;;;18.72;51.77;99219.00;5158957;27;20046;-60
2023/05/02 07:53:32;;;;;;;9.25;2.15;;;;;;;19.36;51.72;99222.81;5159346;27;20379;-58
2023/05/02 07:55:58;;;;;;;3.88;1.98;;;;;;;19.85;51.83;99214.78;5159119;27;20057;-56
2023/05/02 07:58:24;;;;;;;8.18;2.22;;;;;;;18.96;51.74;99217.09;5159052;27;20115;-56
2023/05/02 08:00:50;;;;;;;13.68;3.13;;;;;;;19.17;51.11;99215.97;5159302;27;20366;-52
2023/05/02 08:03:16;;;;;;;4.07;2.40;;;;;;;19.93;50.33;99210.69;5159032;27;20074;-57
2023/05/02 08:05:42;;;;;;;7.78;2.47;;;;;;;19.52;50.93;99211.78;5159195;27;20163;-57
2023/05/02 08:08:08;;;;;;;2.95;1.95;;;;;;;18.85;51.23;99210.91;5159071;27;20146;-57
2023/05/02 08:10:33;;;;;;;8.10;2.55;;;;;;;18.74;50.07;99210.28;5159332;27;20050;-59
2023/05/02 08:13:00;;;;;;;8.68;2.00;;;;;;;19.19;50.06;99208.00;5158982;27;20443;-60
2023/05/02 08:15:26;;;;;;;16.40;2.10;;;;;;;19.37;49.79;99207.69;5159116;27;20102;-62
2023/05/02 08:17:52;;;;;;;14.55;2.30;;;;;;;20.12;49.86;99197.19;5158743;27;20058;-63
2023/05/02 08:20:18;;;;;;;14.23;3.47;;;;;;;20.59;48.99;99199.78;5159074;27;20058;-56
2023/05/02 08:22:44;;;;;;;9.13;2.97;;;;;;;19.41;49.40;99196.50;5158719;27;20058;-54
2023/05/02 08:25:10;;;;;;;12.57;4.00;;;;;;;20.10;49.22;99188.50;5158758;27;20115;-58
2023/05/02 08:27:36;;;;;;;8.10;1.92;;;;;;;20.60;48.40;99196.59;5158838;27;20331;-61
2023/05/02 08:30:03;;;;;;;3.20;1.75;;;;;;;20.84;47.83;99199.22;5158550;27;20137;-63
2023/05/02 08:32:29;;;;;;;4.97;2.53;;;;;;;20.33;48.45;99198.75;5158993;27;20139;-54
2023/05/02 08:34:55;;;;;;;5.32;1.70;;;;;;;19.72;48.24;99200.72;5158467;27;20097;-59
2023/05/02 08:37:21;;;;;;;6.50;1.95;;;;;;;18.88;49.17;99200.94;5158813;27;20047;-62
2023/05/02 08:39:47;;;;;;;5.40;1.85;;;;;;;18.92;48.97;99198.88;5158589;27;20086;-58
2023/05/02 08:42:13;;;;;;;6.55;2.80;;;;;;;18.92;49.54;99201.66;5157637;27;20050;-55
2023/05/02 08:44:39;;;;;;;12.02;2.28;;;;;;;19.09;49.52;99192.25;5158390;27;20115;-59
2023/05/02 08:47:09;;;;;;;11.60;1.98;;;;;;;19.03;49.37;99189.19;5158798;27;20057;-61
2023/05/02 08:49:37;;;;;;;9.25;1.73;;;;;;;19.57;48.85;99179.16;5158594;27;20396;-55
2023/05/02 08:52:05;;;;;;;6.95;2.03;;;;;;;19.57;49.21;99182.72;5158377;27;20048;-57
2023/05/02 08:54:32;;;;;;;11.25;2.42;;;;;;;19.87;48.97;99184.56;5158364;27;20385;-56
2023/05/02 08:56:58;;;;;;;9.60;2.30;;;;;;;20.01;49.14;99179.91;5158089;27;20153;-54
2023/05/02 08:59:24;;;;;;;8.57;2.33;;;;;;;18.77;48.85;99174.13;5158144;27;20064;-53
2023/05/02 09:01:58;;;;;;;4.20;1.73;;;;;;;19.16;48.68;99158.81;5157938;27;20046;-60
2023/05/02 09:04:30;;;;;;;7.95;2.15;;;;;;;19.81;48.64;99161.22;5158439;27;20111;-60
2023/05/02 09:06:56;;;;;;;7.15;2.25;;;;;;;19.62;47.14;99176.66;5158018;27;20058;-57
2023/05/02 09:09:22;;;;;;;4.55;1.40;;;;;;;20.58;47.00;99162.03;5158429;27;20116;-58
2023/05/02 09:11:49;;;;;;;8.27;3.08;;;;;;;21.92;47.54;99158.22;5157871;27;20057;-59
2023/05/02 09:14:16;;;;;;;12.18;2.88;;;;;;;22.07;44.71;99146.22;5158018;27;20043;-61
2023/05/02 09:16:42;;;;;;;20.70;2.53;;;;;;;20.66;46.08;99136.38;5157958;27;20301;-60
2023/05/02 09:19:09;;;;;;;10.75;4.60;;;;;;;21.50;46.78;99133.88;5157978;27;20076;-56
2023/05/02 09:21:38;;;;;;;10.43;3.33;;;;;;;21.19;45.69;99138.25;5157820;27;20051;-55
2023/05/02 09:24:15;;;;;;;3.08;2.17;;;;;;;20.43;47.17;99119.78;5157884;27;20058;-64
2023/05/02 09:26:41;;;;;;;14.15;1.70;;;;;;;20.86;47.28;99118.78;5158075;27;20058;-65
2023/05/02 09:29:07;;;;;;;2.53;1.90;;;;;;;20.73;46.16;99120.72;5158676;27;20058;-63
2023/05/02 09:31:36;;;;;;;5.50;1.50;;;;;;;20.75;45.94;99127.38;5158287;27;20046;-59
2023/05/02 09:34:08;;;;;;;4.90;2.03;;;;;;;20.96;46.61;99112.16;5157666;27;20138;-59
2023/05/02 09:36:39;;;;;;;7.40;1.88;;;;;;;20.24;47.17;99103.91;5157929;27;20046;-58
2023/05/02 09:39:09;;;;;;;5.85;2.03;;;;;;;20.21;47.43;99106.31;5157271;27;20376;-64
2023/05/02 09:41:39;;;;;;;5.63;2.05;;;;;;;21.32;46.99;99100.84;5157352;27;20412;-61
2023/05/02 09:44:09;;;;;;;12.75;2.65;;;;;;;20.94;47.01;99106.22;5157733;27;20158;-58
2023/05/02 09:46:39;;;;;;;6.70;2.38;;;;;;;20.36;47.05;99092.06;5157492;27;20142;-62
2023/05/02 09:49:06;;;;;;;8.60;2.50;;;;;;;19.95;47.72;99099.72;5157560;27;20054;-57
2023/05/02 09:51:32;;;;;;;7.82;2.58;;;;;;;21.18;47.02;99092.88;5157446;27;20046;-63
2023/05/02 09:53:58;;;;;;;10.13;2.10;;;;;;;22.19;45.50;99088.88;5159573;27;20042;-63
2023/05/02 09:56:24;;;;;;;7.82;2.45;;;;;;;21.04;46.42;99091.25;5160965;27;20047;-64
2023/05/02 09:58:50;;;;;;;9.60;2.53;;;;;;;21.29;46.28;99087.00;5161190;27;20057;-58
2023/05/02 10:01:17;;;;;;;5.18;2.28;;;;;;;20.56;46.77;99084.50;5160962;27;20142;-57
2023/05/02 10:03:46;;;;;;;4.30;1.55;;;;;;;19.88;46.99;99094.31;5161021;27;20051;-60
2023/05/02 10:06:14;;;;;;;3.83;2.03;;;;;;;19.91;47.38;99082.31;5160327;27;20054;-57
2023/05/02 10:08:42;;;;;;;9.25;2.60;;;;;;;20.72;47.72;99080.13;5160375;27;20137;-64
2023/05/02 10:11:11;;;;;;;9.90;2.50;;;;;;;19.83;46.65;99074.59;5160915;27;20370;-60
2023/05/02 10:13:38;;;;;;;11.68;2.55;;;;;;;20.59;47.32;99071.66;5160470;27;20409;-64
2023/05/02 10:16:06;;;;;;;12.35;2.33;;;;;;;21.01;46.98;99080.19;5160754;27;20050;-62
2023/05/02 10:18:37;;;;;;;7.93;2.20;;;;;;;21.60;46.37;99079.03;5160590;27;20107;-58
2023/05/02 10:21:08;;;;;;;6.97;1.83;;;;;;;20.33;46.44;99065.13;5161087;27;20134;-60
2023/05/02 10:23:35;;;;;;;8.40;2.20;;;;;;;20.64;47.72;99071.16;5160581;27;20053;-57
2023/05/02 10:26:01;;;;;;;6.05;2.35;;;;;;;19.86;46.97;99077.28;5161027;27;20046;-57
2023/05/02 10:28:29;;;;;;;9.23;2.45;;;;;;;20.49;48.55;99067.91;5160582;27;20435;-63
2023/05/02 10:30:56;;;;;;;21.17;2.22;;;;;;;19.84;47.31;99071.34;5161024;27;20047;-56
2023/05/02 10:33:22;;;;;;;5.57;2.10;;;;;;;19.99;47.87;99063.47;5160963;27;20098;-63
2023/05/02 10:35:49;;;;;;;2.60;1.50;;;;;;;20.00;47.71;99053.16;5160261;27;20456;-57
2023/05/02 10:38:18;;;;;;;8.88;2.80;;;;;;;20.66;47.99;99049.25;5160341;27;20090;-58
2023/05/02 10:40:54;;;;;;;12.95;2.40;;;;;;;20.63;48.65;99045.31;5160936;27;20058;-60
2023/05/02 10:43:22;;;;;;;11.02;2.47;;;;;;;21.22;48.88;99045.38;5160598;27;20324;-58
2023/05/02 10:45:49;;;;;;;2.67;2.30;;;;;;;21.80;48.51;99045.38;5160128;27;20043;-64
2023/05/02 10:48:17;;;;;;;7.00;1.65;;;;;;;20.86;47.48;99038.78;5160438;27;20430;-61
2023/05/02 10:50:46;;;;;;;11.35;3.00;;;;;;;20.87;46.92;99029.19;5160043;27;20061;-58
2023/05/02 10:53:29;;;;;;;15.85;2.30;;;;;;;20.49;47.62;99042.84;5160492;27;20368;-57
2023/05/02 10:56:10;;;;;;;6.78;2.08;;;;;;;19.88;47.25;99038.66;5160187;27;20141;-58
2023/05/02 10:58:36;;;;;;;5.85;1.92;;;;;;;19.37;48.36;99045.69;5159941;27;20076;-59
2023/05/02 11:01:36;;;;;;;14.63;2.13;;;;;;;19.52;48.53;99033.03;5160183;27;20047;-58
2023/05/02 11:04:04;;;;;;;5.75;1.70;;;;;;;19.92;49.71;99030.25;5159449;27;20093;-57
2023/05/02 11:06:32;;;;;;;18.80;2.35;;;;;;;19.43;49.00;99025.31;5159639;27;20458;-63
2023/05/02 11:09:34;;;;;;;3.15;1.80;;;;;;;19.32;49.29;99026.72;5159734;27;20198;-63
2023/05/02 11:12:01;;;;;;;8.32;1.80;;;;;;;19.60;49.76;99015.03;5159596;27;20046;-58
2023/05/02 11:14:47;;;;;;;9.13;2.00;;;;;;;19.85;48.33;99010.94;5159858;27;20047;-62
2023/05/02 11:17:13;;;;;;;5.43;1.90;;;;;;;19.48;47.72;99013.66;5159495;27;20054;-59
2023/05/02 11:20:28;;;;;;;3.50;1.98;;;;;;;19.38;49.30;98998.00;5159911;27;20082;-60
2023/05/02 11:22:56;;;;;;;6.43;2.20;;;;;;;20.00;49.39;98981.59;5159884;27;20078;-59
2023/05/02 11:25:37;;;;;;;9.05;2.00;;;;;;;19.74;49.05;99000.84;5159305;27;20138;-63
2023/05/02 11:28:05;;;;;;;6.63;1.95;;;;;;;19.53;49.16;98987.38;5159818;27;20376;-61
2023/05/02 11:30:47;;;;;;;7.72;1.95;;;;;;;19.21;48.78;98986.03;5159555;27;20050;-63
2023/05/02 11:33:17;;;;;;;6.18;2.50;;;;;;;19.67;49.17;98989.09;5159884;27;20046;-60
2023/05/02 11:35:47;;;;;;;11.10;3.22;;;;;;;19.93;48.76;98979.75;5159180;27;20179;-55